createdAt,value
2018-08-24T00:03:22.101Z,1.8
2018-08-24T00:13:21.707Z,2.4
2018-08-24T00:23:21.318Z,2.3
2018-08-24T00:33:22.024Z,2.1
2018-08-24T00:43:22.032Z,2.3
2018-08-24T00:53:21.661Z,2.3
2018-08-24T01:03:21.383Z,2.3
2018-08-24T01:13:21.104Z,2
2018-08-24T01:23:21.821Z,3.1
2018-08-24T01:33:21.437Z,2
2018-08-24T01:43:21.122Z,2.3
2018-08-24T01:53:20.837Z,1.8
2018-08-24T02:03:20.391Z,2.1
2018-08-24T02:13:20.080Z,1.8
2018-08-24T02:23:19.747Z,2
2018-08-24T02:33:19.325Z,2.4
2018-08-24T02:43:19.017Z,2.1
2018-08-24T02:53:18.578Z,2.3
2018-08-24T03:03:18.229Z,2
2018-08-24T03:13:17.952Z,2.5
2018-08-24T03:23:17.622Z,2.4
2018-08-24T03:33:18.262Z,1.8
2018-08-24T03:43:18.054Z,2.3
2018-08-24T03:53:19.260Z,1.8
2018-08-24T04:03:19.304Z,2.5
2018-08-24T04:13:19.619Z,2.3
2018-08-24T04:23:19.922Z,2.3
2018-08-24T04:33:20.649Z,3.1
2018-08-24T04:43:20.794Z,2.1
2018-08-24T04:53:20.756Z,2.7
2018-08-24T05:03:23.348Z,2.6
2018-08-24T05:13:23.086Z,1.9
2018-08-24T05:23:22.920Z,4.4
2018-08-24T05:33:24.034Z,2.7
2018-08-24T05:43:27.365Z,5.3
2018-08-24T05:53:28.137Z,3.9
2018-08-24T06:03:30.621Z,2.1
2018-08-24T06:13:31.232Z,4.1
2018-08-24T06:23:32.455Z,2.5
2018-08-24T06:33:33.141Z,4.6
2018-08-24T06:43:34.466Z,2.9
2018-08-24T06:53:35.350Z,4.7
2018-08-24T07:03:38.247Z,5
2018-08-24T07:13:42.279Z,6.7
2018-08-24T07:23:41.948Z,10.9
2018-08-24T07:33:42.021Z,3.9
2018-08-24T07:43:41.861Z,4.2
2018-08-24T07:53:41.991Z,3.5
2018-08-24T08:03:42.483Z,3.4
2018-08-24T08:13:42.566Z,3.7
2018-08-24T08:23:45.975Z,2.9
2018-08-24T08:33:45.894Z,2.6
2018-08-24T08:43:45.810Z,3.2
2018-08-24T08:53:45.729Z,9.3
2018-08-24T09:03:46.247Z,3.5
2018-08-24T09:13:46.838Z,2.6
2018-08-24T09:23:46.759Z,2.7
2018-08-24T09:33:53.401Z,3.5
2018-08-24T09:43:56.873Z,3.5
2018-08-24T09:53:57.176Z,3.6
2018-08-24T10:03:57.310Z,4.2
2018-08-24T10:13:59.111Z,4.1
2018-08-24T10:23:59.211Z,3.5
2018-08-24T10:34:01.411Z,4.3
2018-08-24T10:44:02.135Z,5.5
2018-08-24T10:54:11.255Z,4.8
2018-08-24T11:04:26.781Z,8.1
2018-08-24T11:14:32.454Z,5.8
2018-08-24T11:24:42.393Z,4.1
2018-08-24T11:34:44.149Z,5.9
2018-08-24T11:44:48.090Z,3.9
2018-08-24T11:54:48.052Z,4
2018-08-24T12:04:47.970Z,5.1
2018-08-24T12:14:50.241Z,5.5
2018-08-24T12:24:55.440Z,3.9
2018-08-24T12:34:55.519Z,5
2018-08-24T12:44:56.821Z,3.8
2018-08-24T12:54:57.346Z,4.6
2018-08-24T13:04:57.084Z,4.8
2018-08-24T13:14:57.004Z,4.3
2018-08-24T13:24:57.067Z,5.7
2018-08-24T13:34:57.591Z,4.2
2018-08-24T13:44:59.415Z,4.3
2018-08-24T13:55:03.475Z,4.3
2018-08-24T14:05:04.176Z,4.5
2018-08-24T14:15:05.792Z,4.5
2018-08-24T14:25:07.325Z,5.3
2018-08-24T14:35:12.469Z,4.4
2018-08-24T14:45:13.363Z,4
2018-08-24T14:55:13.295Z,3.5
2018-08-24T15:05:13.344Z,4.2
2018-08-24T15:15:12.971Z,5.3
2018-08-24T15:25:13.805Z,4.9
2018-08-24T15:35:16.179Z,4.9
2018-08-24T15:45:19.262Z,4.8
2018-08-24T15:55:19.243Z,6
2018-08-24T16:05:22.992Z,6
2018-08-24T16:15:22.868Z,7.3
2018-08-24T16:25:25.183Z,6.4
2018-08-24T16:35:34.261Z,6.2
2018-08-24T16:45:41.064Z,5.1
2018-08-24T16:55:44.631Z,6.7
2018-08-24T17:05:45.011Z,5
2018-08-24T17:15:46.666Z,6.1
2018-08-24T17:25:48.015Z,6
2018-08-24T17:35:49.422Z,5.6
2018-08-24T17:45:59.073Z,7.1
2018-08-24T17:56:02.714Z,5.8
2018-08-24T18:06:04.595Z,6
2018-08-24T18:16:06.052Z,6.7
2018-08-24T18:26:10.682Z,5.2
2018-08-24T18:36:10.668Z,5.4
2018-08-24T18:46:11.955Z,7.3
2018-08-24T18:56:14.902Z,5.1
2018-08-24T19:06:17.342Z,7.2
2018-08-24T19:16:17.799Z,7.2
2018-08-24T19:26:18.552Z,10.8
2018-08-24T19:36:21.085Z,9
2018-08-24T19:46:22.257Z,10.6
2018-08-24T19:56:22.160Z,10.9
2018-08-24T20:06:23.739Z,13.2
2018-08-24T20:16:30.192Z,11.2
2018-08-24T20:26:30.322Z,10.1
2018-08-24T20:36:34.804Z,13.6
2018-08-24T20:46:38.026Z,12
2018-08-24T20:56:38.520Z,9.7
2018-08-24T21:06:38.881Z,11.9
2018-08-24T21:16:38.923Z,10.7
2018-08-24T21:26:41.587Z,9.4
2018-08-24T21:36:42.485Z,11.1
2018-08-24T21:46:43.730Z,9.9
2018-08-24T21:56:46.972Z,10.7
2018-08-24T22:06:47.655Z,9.8
2018-08-24T22:16:51.302Z,29.6
2018-08-24T22:26:55.735Z,11.3
2018-08-24T22:37:06.343Z,9.5
2018-08-24T22:40:02.577Z,10.2
2018-08-24T22:50:08.631Z,7.9
2018-08-24T23:00:11.839Z,7.6
2018-08-24T23:10:11.576Z,10.4
2018-08-24T23:20:12.781Z,7.7
2018-08-24T23:30:16.219Z,8.8
2018-08-24T23:40:20.038Z,7.8
2018-08-24T23:50:19.746Z,7.3
